createdAt,value
2018-01-28T00:01:56.597Z,99.99
2018-01-28T00:02:56.628Z,99.99
2018-01-28T00:03:56.659Z,99.99
2018-01-28T00:04:56.691Z,99.99
2018-01-28T00:05:56.924Z,99.99
2018-01-28T00:06:56.755Z,99.99
2018-01-28T00:07:56.788Z,99.99
2018-01-28T00:08:56.818Z,99.99
2018-01-28T00:09:56.848Z,99.99
2018-01-28T00:10:56.973Z,99.99
2018-01-28T00:11:56.907Z,99.99
2018-01-28T00:12:56.940Z,99.99
2018-01-28T00:13:56.980Z,99.99
2018-01-28T00:14:57.006Z,99.99
2018-01-28T00:15:57.049Z,99.99
2018-01-28T00:16:57.071Z,99.99
2018-01-28T00:17:57.173Z,99.99
2018-01-28T00:18:57.133Z,99.99
2018-01-28T00:19:57.161Z,99.99
2018-01-28T00:20:57.194Z,99.99
2018-01-28T00:21:57.223Z,99.99
2018-01-28T00:22:57.254Z,99.99
2018-01-28T00:23:57.288Z,99.99
2018-01-28T00:24:57.318Z,99.99
2018-01-28T00:25:57.350Z,99.99
2018-01-28T00:26:57.379Z,99.99
2018-01-28T00:27:57.413Z,99.99
2018-01-28T00:28:57.450Z,99.99
2018-01-28T00:29:57.538Z,99.99
2018-01-28T00:30:57.505Z,99.99
2018-01-28T00:31:57.540Z,99.99
2018-01-28T00:32:57.573Z,99.99
2018-01-28T00:33:57.600Z,99.99
2018-01-28T00:34:57.847Z,99.99
2018-01-28T00:35:57.666Z,99.99
2018-01-28T00:36:57.693Z,99.99
2018-01-28T00:37:57.726Z,99.99
2018-01-28T00:38:57.755Z,99.99
2018-01-28T00:39:57.793Z,99.99
2018-01-28T00:40:57.821Z,99.99
2018-01-28T00:41:57.851Z,99.99
2018-01-28T00:43:57.917Z,99.99
2018-01-28T00:44:57.951Z,99.68
2018-01-28T00:45:57.977Z,99.99
2018-01-28T00:46:58.010Z,99.99
2018-01-28T00:47:58.044Z,99.99
2018-01-28T00:48:58.072Z,99.87
2018-01-28T00:49:58.102Z,99.97
2018-01-28T00:50:58.134Z,99.99
2018-01-28T00:51:58.187Z,99.99
2018-01-28T00:52:58.196Z,99.77
2018-01-28T00:53:58.232Z,99.40
2018-01-28T00:54:58.261Z,99.30
2018-01-28T00:55:58.297Z,99.30
2018-01-28T00:56:58.325Z,99.68
2018-01-28T00:57:58.354Z,99.58
2018-01-28T00:58:58.393Z,99.40
2018-01-28T00:59:58.426Z,99.58
2018-01-28T01:00:58.454Z,99.77
2018-01-28T01:01:58.482Z,99.40
2018-01-28T01:02:58.516Z,99.87
2018-01-28T01:03:58.548Z,98.92
2018-01-28T01:04:58.584Z,98.92
2018-01-28T01:05:58.609Z,99.11
2018-01-28T01:06:58.647Z,99.68
2018-01-28T01:07:58.675Z,99.58
2018-01-28T01:08:58.710Z,99.49
2018-01-28T01:09:58.740Z,99.30
2018-01-28T01:10:58.801Z,98.45
2018-01-28T01:11:58.798Z,99.30
2018-01-28T01:12:58.833Z,98.92
2018-01-28T01:13:58.868Z,99.11
2018-01-28T01:14:58.917Z,98.35
2018-01-28T01:15:58.932Z,97.97
2018-01-28T01:16:58.963Z,98.35
2018-01-28T01:17:59.012Z,98.54
2018-01-28T01:18:59.035Z,98.07
2018-01-28T01:19:59.057Z,97.97
2018-01-28T01:20:59.089Z,97.31
2018-01-28T01:21:59.118Z,97.22
2018-01-28T01:22:59.150Z,97.22
2018-01-28T01:23:59.181Z,97.41
2018-01-28T01:24:59.210Z,97.50
2018-01-28T01:25:59.242Z,97.88
2018-01-28T01:26:59.276Z,97.60
2018-01-28T01:27:59.308Z,97.60
2018-01-28T01:28:59.343Z,97.41
2018-01-28T01:29:59.370Z,96.93
2018-01-28T01:30:59.456Z,96.93
2018-01-28T01:31:59.443Z,96.64
2018-01-28T01:32:59.480Z,96.83
2018-01-28T01:33:59.498Z,96.64
2018-01-28T01:34:59.541Z,96.55
2018-01-28T01:35:59.562Z,95.70
2018-01-28T01:36:59.598Z,95.41
2018-01-28T01:37:59.625Z,96.83
2018-01-28T01:38:59.653Z,96.36
2018-01-28T01:39:59.688Z,96.93
2018-01-28T01:40:59.719Z,96.45
2018-01-28T01:41:59.868Z,96.83
2018-01-28T01:42:59.781Z,96.36
2018-01-28T01:43:59.814Z,96.93
2018-01-28T01:44:59.845Z,97.02
2018-01-28T01:45:59.880Z,96.93
2018-01-28T01:46:59.915Z,97.50
2018-01-28T01:47:59.940Z,95.79
2018-01-28T01:48:59.969Z,95.89
2018-01-28T01:50:00.004Z,95.89
2018-01-28T01:51:00.041Z,95.79
2018-01-28T01:52:00.124Z,95.41
2018-01-28T01:53:00.101Z,95.41
2018-01-28T01:54:00.178Z,94.74
2018-01-28T01:55:00.181Z,95.12
2018-01-28T01:56:00.194Z,95.41
2018-01-28T01:57:00.223Z,95.31
2018-01-28T01:58:00.255Z,94.74
2018-01-28T01:59:00.290Z,94.93
2018-01-28T02:00:00.322Z,95.22
2018-01-28T02:01:00.351Z,94.37
2018-01-28T02:02:00.384Z,94.08
2018-01-28T02:03:00.414Z,94.56
2018-01-28T02:04:00.445Z,95.12
2018-01-28T02:05:00.480Z,95.51
2018-01-28T02:06:00.511Z,95.60
2018-01-28T02:07:00.546Z,94.65
2018-01-28T02:08:00.655Z,94.74
2018-01-28T02:09:00.604Z,95.22
2018-01-28T02:10:00.639Z,95.03
2018-01-28T02:11:00.671Z,94.65
2018-01-28T02:12:00.703Z,94.27
2018-01-28T02:13:00.732Z,94.56
2018-01-28T02:14:00.764Z,93.89
2018-01-28T02:15:00.794Z,94.56
2018-01-28T02:16:00.834Z,94.46
2018-01-28T02:17:00.859Z,94.65
2018-01-28T02:18:00.893Z,94.46
2018-01-28T02:19:00.978Z,95.03
2018-01-28T02:20:00.954Z,95.03
2018-01-28T02:21:00.987Z,94.56
2018-01-28T02:22:01.018Z,94.46
2018-01-28T02:23:01.051Z,94.65
2018-01-28T02:24:01.082Z,94.46
2018-01-28T02:25:01.116Z,94.65
2018-01-28T02:26:01.145Z,94.27
2018-01-28T02:27:01.174Z,93.99
2018-01-28T02:28:01.207Z,93.51
2018-01-28T02:29:01.248Z,94.08
2018-01-28T02:30:01.276Z,94.18
2018-01-28T02:31:01.320Z,93.70
2018-01-28T02:32:01.657Z,94.08
2018-01-28T02:33:01.365Z,93.80
2018-01-28T02:34:01.397Z,93.89
2018-01-28T02:35:01.432Z,93.51
2018-01-28T02:36:01.464Z,93.60
2018-01-28T02:37:01.495Z,93.41
2018-01-28T02:38:01.525Z,93.70
2018-01-28T02:39:01.556Z,93.80
2018-01-28T02:40:01.589Z,93.70
2018-01-28T02:41:01.617Z,93.70
2018-01-28T02:42:01.649Z,93.70
2018-01-28T02:43:01.686Z,94.08
2018-01-28T02:44:01.776Z,94.18
2018-01-28T02:45:01.755Z,94.08
2018-01-28T02:46:01.776Z,93.89
2018-01-28T02:47:01.811Z,93.70
2018-01-28T02:48:01.839Z,93.70
2018-01-28T02:49:01.872Z,93.41
2018-01-28T02:50:01.910Z,93.80
2018-01-28T02:51:02.007Z,93.70
2018-01-28T02:52:01.966Z,93.70
2018-01-28T02:53:01.999Z,93.80
2018-01-28T02:54:02.041Z,93.70
2018-01-28T02:55:02.065Z,93.41
2018-01-28T02:56:02.092Z,93.60
2018-01-28T02:57:02.127Z,93.51
2018-01-28T02:58:02.163Z,93.80
2018-01-28T02:59:02.188Z,93.41
2018-01-28T03:00:02.249Z,93.23
2018-01-28T03:01:02.454Z,94.08
2018-01-28T03:02:02.284Z,93.70
2018-01-28T03:03:02.318Z,93.99
2018-01-28T03:04:02.348Z,93.89
2018-01-28T03:05:02.378Z,93.41
2018-01-28T03:06:02.412Z,93.80
2018-01-28T03:07:02.444Z,93.51
2018-01-28T03:08:02.543Z,93.80
2018-01-28T03:09:02.505Z,93.70
2018-01-28T03:10:02.540Z,94.08
2018-01-28T03:11:02.584Z,93.89
2018-01-28T03:12:02.602Z,93.89
2018-01-28T03:13:02.633Z,93.89
2018-01-28T03:14:02.664Z,93.60
2018-01-28T03:15:02.724Z,93.99
2018-01-28T03:16:02.730Z,93.23
2018-01-28T03:17:02.758Z,93.70
2018-01-28T03:18:02.792Z,94.27
2018-01-28T03:19:02.823Z,94.08
2018-01-28T03:20:02.856Z,94.46
2018-01-28T03:21:02.884Z,94.27
2018-01-28T03:22:02.917Z,94.08
2018-01-28T03:23:02.950Z,94.46
2018-01-28T03:24:02.982Z,94.46
2018-01-28T03:25:03.011Z,94.37
2018-01-28T03:26:03.050Z,94.37
2018-01-28T03:27:03.076Z,93.32
2018-01-28T03:28:03.105Z,94.18
2018-01-28T03:29:03.142Z,93.60
2018-01-28T03:30:03.172Z,93.32
2018-01-28T03:31:03.202Z,93.80
2018-01-28T03:32:03.239Z,93.89
2018-01-28T03:33:03.281Z,94.37
2018-01-28T03:34:03.297Z,94.46
2018-01-28T03:35:03.334Z,94.08
2018-01-28T03:36:03.362Z,94.56
2018-01-28T03:37:03.392Z,94.08
2018-01-28T03:38:03.424Z,93.51
2018-01-28T03:39:03.456Z,93.70
2018-01-28T03:40:03.487Z,93.70
2018-01-28T03:41:03.522Z,94.46
2018-01-28T03:42:03.554Z,94.37
2018-01-28T03:43:03.583Z,93.80
2018-01-28T03:44:03.615Z,93.70
2018-01-28T03:45:03.656Z,93.99
2018-01-28T03:46:03.678Z,93.89
2018-01-28T03:47:03.719Z,93.89
2018-01-28T03:48:03.743Z,94.27
2018-01-28T03:49:03.838Z,94.46
2018-01-28T03:50:03.806Z,93.80
2018-01-28T03:51:03.893Z,93.51
2018-01-28T03:52:03.874Z,94.08
2018-01-28T03:53:03.905Z,93.99
2018-01-28T03:54:03.947Z,93.70
2018-01-28T03:55:03.964Z,93.99
2018-01-28T03:56:03.997Z,94.74
2018-01-28T03:57:04.028Z,94.46
2018-01-28T03:58:04.165Z,94.65
2018-01-28T03:59:04.094Z,94.84
2018-01-28T04:00:04.138Z,95.51
2018-01-28T04:01:04.153Z,95.12
2018-01-28T04:02:04.189Z,95.03
2018-01-28T04:03:04.218Z,94.56
2018-01-28T04:04:04.250Z,94.37
2018-01-28T04:05:04.359Z,93.99
2018-01-28T04:06:04.317Z,94.56
2018-01-28T04:07:04.345Z,94.18
2018-01-28T04:08:04.378Z,94.56
2018-01-28T04:09:04.412Z,94.65
2018-01-28T04:10:04.440Z,95.22
2018-01-28T04:11:04.475Z,95.60
2018-01-28T04:12:04.506Z,94.93
2018-01-28T04:13:04.536Z,95.31
2018-01-28T04:14:04.570Z,95.41
2018-01-28T04:15:04.600Z,95.31
2018-01-28T04:16:04.632Z,95.03
2018-01-28T04:17:04.661Z,94.93
2018-01-28T04:18:04.697Z,95.60
2018-01-28T04:19:04.728Z,95.51
2018-01-28T04:20:04.759Z,95.31
2018-01-28T04:21:04.790Z,95.70
2018-01-28T04:22:04.857Z,95.79
2018-01-28T04:23:04.851Z,95.89
2018-01-28T04:24:04.896Z,96.08
2018-01-28T04:25:04.917Z,95.60
2018-01-28T04:26:04.949Z,95.98
2018-01-28T04:27:04.981Z,95.89
2018-01-28T04:28:05.019Z,96.45
2018-01-28T04:29:05.370Z,95.79
2018-01-28T04:30:05.079Z,95.98
2018-01-28T04:31:05.109Z,95.98
2018-01-28T04:32:05.139Z,95.79
2018-01-28T04:33:05.171Z,96.55
2018-01-28T04:34:05.201Z,96.08
2018-01-28T04:35:05.235Z,95.79
2018-01-28T04:36:05.268Z,95.70
2018-01-28T04:37:05.295Z,96.08
2018-01-28T04:38:05.328Z,96.08
2018-01-28T04:39:05.358Z,95.98
2018-01-28T04:40:05.392Z,96.45
2018-01-28T04:41:05.492Z,96.55
2018-01-28T04:42:05.454Z,96.64
2018-01-28T04:43:05.491Z,96.17
2018-01-28T04:44:05.534Z,96.26
2018-01-28T04:45:05.551Z,96.55
2018-01-28T04:46:05.584Z,96.83
2018-01-28T04:47:05.617Z,96.93
2018-01-28T04:48:05.719Z,96.55
2018-01-28T04:49:05.679Z,96.93
2018-01-28T04:50:05.710Z,96.74
2018-01-28T04:51:05.743Z,97.22
2018-01-28T04:52:05.776Z,97.02
2018-01-28T04:53:05.800Z,97.12
2018-01-28T04:54:05.834Z,96.93
2018-01-28T04:55:05.867Z,96.83
2018-01-28T04:56:05.897Z,97.02
2018-01-28T04:57:05.931Z,96.55
2018-01-28T04:58:05.969Z,96.83
2018-01-28T04:59:05.994Z,96.93
2018-01-28T05:00:06.025Z,97.41
2018-01-28T05:01:06.054Z,97.41
2018-01-28T05:02:06.089Z,97.22
2018-01-28T05:03:06.122Z,97.12
2018-01-28T05:04:06.153Z,97.12
2018-01-28T05:05:06.242Z,97.12
2018-01-28T05:06:06.262Z,97.60
2018-01-28T05:07:06.244Z,97.41
2018-01-28T05:08:06.279Z,97.60
2018-01-28T05:09:06.312Z,97.02
2018-01-28T05:10:06.357Z,96.64
2018-01-28T05:11:06.420Z,97.02
2018-01-28T05:12:06.433Z,97.60
2018-01-28T05:13:06.635Z,97.50
2018-01-28T05:14:06.468Z,97.50
2018-01-28T05:15:06.498Z,97.12
2018-01-28T05:16:06.533Z,97.12
2018-01-28T05:17:06.563Z,96.93
2018-01-28T05:18:06.594Z,96.93
2018-01-28T05:19:06.642Z,96.93
2018-01-28T05:20:06.659Z,97.02
2018-01-28T05:21:06.689Z,97.31
2018-01-28T05:22:06.723Z,97.50
2018-01-28T05:23:06.755Z,97.02
2018-01-28T05:24:06.784Z,97.50
2018-01-28T05:25:06.814Z,97.69
2018-01-28T05:26:06.849Z,97.41
2018-01-28T05:27:06.879Z,97.41
2018-01-28T05:28:06.914Z,97.50
2018-01-28T05:29:06.945Z,97.22
2018-01-28T05:30:06.975Z,97.60
2018-01-28T05:32:07.039Z,97.50
2018-01-28T05:33:07.071Z,97.60
2018-01-28T05:34:07.106Z,97.31
2018-01-28T05:35:07.137Z,97.12
2018-01-28T05:36:07.167Z,97.50
2018-01-28T05:37:07.199Z,97.41
2018-01-28T05:38:07.230Z,97.31
2018-01-28T05:39:07.265Z,97.02
2018-01-28T05:40:07.310Z,97.60
2018-01-28T05:41:07.326Z,97.31
2018-01-28T05:42:07.358Z,97.41
2018-01-28T05:43:07.389Z,97.31
2018-01-28T05:44:07.430Z,97.41
2018-01-28T05:45:07.451Z,97.41
2018-01-28T05:46:07.500Z,97.97
2018-01-28T05:47:07.517Z,97.78
2018-01-28T05:48:07.556Z,97.60
2018-01-28T05:49:07.580Z,97.31
2018-01-28T05:50:07.614Z,97.31
2018-01-28T05:51:07.642Z,96.83
2018-01-28T05:52:07.680Z,97.02
2018-01-28T05:53:07.708Z,97.31
2018-01-28T05:54:07.741Z,97.02
2018-01-28T05:55:07.853Z,97.22
2018-01-28T05:56:07.802Z,97.41
2018-01-28T05:57:07.833Z,97.22
2018-01-28T05:58:07.868Z,96.93
2018-01-28T05:59:07.898Z,96.83
2018-01-28T06:00:07.947Z,97.22
2018-01-28T06:01:07.961Z,97.22
2018-01-28T06:02:07.994Z,97.12
2018-01-28T06:03:08.030Z,97.02
2018-01-28T06:04:08.060Z,97.02
2018-01-28T06:05:08.088Z,97.02
2018-01-28T06:06:08.120Z,97.22
2018-01-28T06:07:08.151Z,97.02
2018-01-28T06:08:08.191Z,96.93
2018-01-28T06:09:08.221Z,97.31
2018-01-28T06:10:08.258Z,97.50
2018-01-28T06:11:08.281Z,97.50
2018-01-28T06:12:08.321Z,97.41
2018-01-28T06:13:08.347Z,97.41
2018-01-28T06:14:08.376Z,97.50
2018-01-28T06:15:08.412Z,97.31
2018-01-28T06:16:08.442Z,97.31
2018-01-28T06:17:08.470Z,97.41
2018-01-28T06:18:08.506Z,96.93
2018-01-28T06:19:08.537Z,96.93
2018-01-28T06:20:08.570Z,97.02
2018-01-28T06:21:08.620Z,97.12
2018-01-28T06:22:08.634Z,97.31
2018-01-28T06:23:08.683Z,97.50
2018-01-28T06:24:08.697Z,97.31
2018-01-28T06:25:08.726Z,97.31
2018-01-28T06:26:08.761Z,97.60
2018-01-28T06:27:08.799Z,97.31
2018-01-28T06:28:08.825Z,97.41
2018-01-28T06:29:08.854Z,97.31
2018-01-28T06:30:08.886Z,97.41
2018-01-28T06:31:08.925Z,98.54
2018-01-28T06:32:08.952Z,97.50
2018-01-28T06:33:08.994Z,97.88
2018-01-28T06:34:09.014Z,97.41
2018-01-28T06:35:09.047Z,97.55
2018-01-28T06:36:09.077Z,97.02
2018-01-28T06:37:09.112Z,97.02
2018-01-28T06:38:09.482Z,97.41
2018-01-28T06:39:09.173Z,97.12
2018-01-28T06:40:09.208Z,97.41
2018-01-28T06:41:09.252Z,98.54
2018-01-28T06:42:09.268Z,97.60
2018-01-28T06:43:09.303Z,97.88
2018-01-28T06:44:09.336Z,97.78
2018-01-28T06:45:09.371Z,98.64
2018-01-28T06:46:09.403Z,98.07
2018-01-28T06:47:09.431Z,98.45
2018-01-28T06:48:09.463Z,98.45
2018-01-28T06:49:09.500Z,98.64
2018-01-28T06:50:09.524Z,98.35
2018-01-28T06:51:09.570Z,99.30
2018-01-28T06:52:09.588Z,98.54
2018-01-28T06:53:09.619Z,98.64
2018-01-28T06:54:09.655Z,99.11
2018-01-28T06:55:09.685Z,99.02
2018-01-28T06:56:09.718Z,98.83
2018-01-28T06:57:09.758Z,99.11
2018-01-28T06:58:09.840Z,99.49
2018-01-28T06:59:09.816Z,99.49
2018-01-28T07:00:09.845Z,99.30
2018-01-28T07:01:09.875Z,99.02
2018-01-28T07:02:09.978Z,99.40
2018-01-28T07:03:09.938Z,99.49
2018-01-28T07:04:09.972Z,99.77
2018-01-28T07:05:10.010Z,99.99
2018-01-28T07:06:10.037Z,99.99
2018-01-28T07:07:10.068Z,99.99
2018-01-28T07:08:10.099Z,99.99
2018-01-28T07:09:10.129Z,99.99
2018-01-28T07:10:10.161Z,99.99
2018-01-28T07:11:10.196Z,99.99
2018-01-28T07:12:10.227Z,99.99
2018-01-28T07:13:10.256Z,99.99
2018-01-28T07:14:10.296Z,99.99
2018-01-28T07:15:10.320Z,99.99
2018-01-28T07:16:10.411Z,99.99
2018-01-28T07:17:10.387Z,99.99
2018-01-28T07:18:10.418Z,99.99
2018-01-28T07:19:10.447Z,99.99
2018-01-28T07:20:10.480Z,99.99
2018-01-28T07:21:10.561Z,99.99
2018-01-28T07:22:10.543Z,99.99
2018-01-28T07:23:10.579Z,99.99
2018-01-28T07:24:10.608Z,99.99
2018-01-28T07:25:10.638Z,99.99
2018-01-28T07:26:10.673Z,99.99
2018-01-28T07:27:10.705Z,99.99
2018-01-28T07:28:10.838Z,99.99
2018-01-28T07:29:10.769Z,99.99
2018-01-28T07:30:10.800Z,99.99
2018-01-28T07:31:10.830Z,99.99
2018-01-28T07:32:10.863Z,99.99
2018-01-28T07:33:10.892Z,99.99
2018-01-28T07:34:10.929Z,99.99
2018-01-28T07:35:10.961Z,99.99
2018-01-28T07:36:10.990Z,99.99
2018-01-28T07:37:11.025Z,99.99
2018-01-28T07:38:11.056Z,99.99
2018-01-28T07:39:11.092Z,99.99
2018-01-28T07:40:11.122Z,99.99
2018-01-28T07:41:11.150Z,99.99
2018-01-28T07:42:11.181Z,99.99
2018-01-28T07:43:11.214Z,99.99
2018-01-28T07:44:11.245Z,99.99
2018-01-28T07:45:11.381Z,99.99
2018-01-28T07:46:11.308Z,99.99
2018-01-28T07:47:11.348Z,99.99
2018-01-28T07:48:11.372Z,99.99
2018-01-28T07:49:11.404Z,99.99
2018-01-28T07:50:11.434Z,99.99
2018-01-28T07:51:11.465Z,99.99
2018-01-28T07:52:11.576Z,99.99
2018-01-28T07:53:11.531Z,99.99
2018-01-28T07:54:11.562Z,99.99
2018-01-28T07:55:11.595Z,99.99
2018-01-28T07:56:11.628Z,99.99
2018-01-28T07:57:11.658Z,99.99
2018-01-28T07:58:11.690Z,99.99
2018-01-28T07:59:11.725Z,99.99
2018-01-28T08:00:11.754Z,99.99
2018-01-28T08:01:11.785Z,99.99
2018-01-28T08:02:11.818Z,99.99
2018-01-28T08:03:11.852Z,99.99
2018-01-28T08:04:11.887Z,99.99
2018-01-28T08:05:11.913Z,99.99
2018-01-28T08:06:11.949Z,99.99
2018-01-28T08:07:11.978Z,99.99
2018-01-28T08:08:12.013Z,99.99
2018-01-28T08:09:12.044Z,99.99
2018-01-28T08:10:12.073Z,99.99
2018-01-28T08:11:12.173Z,99.99
2018-01-28T08:12:12.148Z,99.99
2018-01-28T08:13:12.168Z,99.99
2018-01-28T08:14:12.204Z,99.99
2018-01-28T08:15:12.235Z,99.99
2018-01-28T08:16:12.275Z,99.99
2018-01-28T08:17:12.299Z,99.99
2018-01-28T08:18:12.330Z,99.99
2018-01-28T08:19:12.383Z,99.99
2018-01-28T08:20:12.397Z,99.99
2018-01-28T08:21:12.428Z,99.99
2018-01-28T08:22:12.458Z,99.99
2018-01-28T08:24:12.525Z,99.99
2018-01-28T08:25:12.556Z,99.99
2018-01-28T08:26:12.591Z,99.99
2018-01-28T08:27:12.626Z,99.99
2018-01-28T08:28:12.669Z,99.99
2018-01-28T08:29:12.686Z,99.99
2018-01-28T08:30:12.716Z,99.99
2018-01-28T08:31:12.750Z,99.99
2018-01-28T08:32:12.780Z,99.92
2018-01-28T08:33:12.815Z,99.99
2018-01-28T08:34:12.846Z,99.99
2018-01-28T08:35:12.903Z,99.99
2018-01-28T08:36:12.920Z,99.99
2018-01-28T08:37:12.942Z,99.99
2018-01-28T08:38:12.976Z,99.92
2018-01-28T08:39:13.009Z,99.44
2018-01-28T08:40:13.039Z,99.44
2018-01-28T08:41:13.095Z,99.99
2018-01-28T08:42:13.189Z,99.44
2018-01-28T08:43:13.137Z,99.35
2018-01-28T08:44:13.170Z,99.44
2018-01-28T08:45:13.199Z,99.44
2018-01-28T08:46:13.234Z,99.35
2018-01-28T08:47:13.265Z,99.44
2018-01-28T08:48:13.298Z,99.44
2018-01-28T08:49:13.331Z,99.83
2018-01-28T08:50:13.420Z,99.07
2018-01-28T08:51:13.394Z,99.35
2018-01-28T08:52:13.431Z,99.73
2018-01-28T08:53:13.458Z,99.54
2018-01-28T08:54:13.492Z,99.64
2018-01-28T08:55:13.534Z,99.35
2018-01-28T08:56:13.560Z,99.64
2018-01-28T08:57:13.589Z,99.54
2018-01-28T08:58:13.620Z,99.99
2018-01-28T08:59:13.652Z,99.54
2018-01-28T09:00:13.684Z,99.44
2018-01-28T09:01:13.744Z,99.54
2018-01-28T09:02:13.753Z,99.64
2018-01-28T09:03:13.785Z,99.83
2018-01-28T09:04:13.816Z,99.73
2018-01-28T09:05:13.849Z,99.54
2018-01-28T09:06:13.880Z,99.99
2018-01-28T09:07:13.911Z,99.35
2018-01-28T09:08:13.951Z,99.07
2018-01-28T09:09:13.977Z,99.54
2018-01-28T09:10:14.010Z,99.54
2018-01-28T09:11:14.054Z,99.44
2018-01-28T09:12:14.073Z,99.59
2018-01-28T09:13:14.104Z,99.99
2018-01-28T09:14:14.143Z,99.73
2018-01-28T09:15:14.171Z,99.99
2018-01-28T09:16:14.207Z,99.44
2018-01-28T09:17:14.233Z,99.97
2018-01-28T09:18:14.371Z,99.88
2018-01-28T09:19:14.302Z,99.99
2018-01-28T09:20:14.332Z,99.59
2018-01-28T09:21:14.365Z,99.44
2018-01-28T09:22:14.404Z,99.50
2018-01-28T09:23:14.428Z,99.78
2018-01-28T09:24:14.461Z,99.78
2018-01-28T09:25:14.541Z,99.97
2018-01-28T09:26:14.525Z,99.59
2018-01-28T09:27:14.557Z,99.88
2018-01-28T09:28:14.593Z,99.50
2018-01-28T09:29:14.632Z,99.40
2018-01-28T09:30:14.656Z,99.99
2018-01-28T09:31:14.688Z,99.69
2018-01-28T09:32:14.723Z,99.69
2018-01-28T09:33:14.757Z,99.69
2018-01-28T09:34:14.794Z,99.97
2018-01-28T09:35:14.823Z,99.50
2018-01-28T09:36:14.855Z,99.59
2018-01-28T09:37:14.883Z,99.21
2018-01-28T09:38:14.925Z,99.11
2018-01-28T09:39:14.951Z,99.30
2018-01-28T09:40:14.992Z,99.78
2018-01-28T09:41:15.015Z,99.69
2018-01-28T09:42:15.151Z,99.40
2018-01-28T09:43:15.079Z,99.50
2018-01-28T09:44:15.115Z,99.40
2018-01-28T09:45:15.144Z,99.59
2018-01-28T09:46:15.175Z,99.78
2018-01-28T09:47:15.209Z,99.97
2018-01-28T09:48:15.244Z,99.99
2018-01-28T09:49:15.666Z,99.78
2018-01-28T09:50:15.308Z,99.59
2018-01-28T09:51:15.343Z,99.59
2018-01-28T09:52:15.383Z,99.11
2018-01-28T09:53:15.461Z,99.30
2018-01-28T09:54:15.437Z,99.40
2018-01-28T09:55:15.476Z,99.21
2018-01-28T09:56:15.506Z,99.69
2018-01-28T09:57:15.536Z,99.88
2018-01-28T09:58:15.577Z,99.40
2018-01-28T09:59:15.601Z,99.69
2018-01-28T10:00:15.638Z,99.50
2018-01-28T10:01:15.720Z,99.40
2018-01-28T10:02:15.698Z,99.59
2018-01-28T10:03:15.732Z,99.69
2018-01-28T10:04:15.769Z,99.40
2018-01-28T10:05:15.798Z,99.50
2018-01-28T10:06:15.832Z,99.59
2018-01-28T10:07:15.867Z,99.21
2018-01-28T10:08:15.967Z,99.74
2018-01-28T10:09:15.931Z,99.74
2018-01-28T10:10:15.964Z,99.74
2018-01-28T10:11:15.995Z,99.64
2018-01-28T10:12:16.048Z,99.26
2018-01-28T10:13:16.062Z,98.88
2018-01-28T10:14:16.098Z,98.41
2018-01-28T10:15:16.130Z,98.41
2018-01-28T10:16:16.168Z,98.03
2018-01-28T10:17:16.199Z,97.83
2018-01-28T10:18:16.433Z,98.22
2018-01-28T10:19:16.260Z,98.12
2018-01-28T10:20:16.305Z,98.31
2018-01-28T10:21:16.329Z,97.93
2018-01-28T10:22:16.387Z,98.79
2018-01-28T10:23:16.396Z,98.88
2018-01-28T10:24:16.490Z,98.50
2018-01-28T10:25:16.469Z,98.50
2018-01-28T10:26:16.492Z,98.79
2018-01-28T10:27:16.531Z,98.50
2018-01-28T10:28:16.579Z,98.22
2018-01-28T10:29:16.595Z,98.41
2018-01-28T10:30:16.624Z,97.45
2018-01-28T10:31:16.659Z,98.41
2018-01-28T10:32:16.721Z,98.31
2018-01-28T10:33:16.726Z,97.74
2018-01-28T10:34:16.761Z,97.31
2018-01-28T10:35:16.793Z,97.41
2018-01-28T10:36:16.828Z,97.41
2018-01-28T10:37:16.862Z,97.69
2018-01-28T10:38:16.891Z,97.60
2018-01-28T10:39:16.981Z,96.98
2018-01-28T10:40:16.961Z,97.60
2018-01-28T10:41:16.993Z,97.55
2018-01-28T10:42:17.030Z,98.36
2018-01-28T10:43:17.062Z,98.03
2018-01-28T10:44:17.415Z,97.55
2018-01-28T10:45:17.131Z,97.27
2018-01-28T10:46:17.175Z,98.03
2018-01-28T10:47:17.196Z,98.17
2018-01-28T10:48:17.239Z,98.22
2018-01-28T10:49:17.264Z,97.83
2018-01-28T10:50:17.295Z,97.60
2018-01-28T10:51:17.338Z,97.60
2018-01-28T10:52:17.362Z,97.50
2018-01-28T10:53:17.398Z,97.69
2018-01-28T10:54:17.439Z,98.08
2018-01-28T10:55:17.465Z,97.50
2018-01-28T10:56:17.503Z,97.69
2018-01-28T10:57:17.529Z,97.31
2018-01-28T10:58:17.564Z,97.79
2018-01-28T10:59:17.597Z,97.60
2018-01-28T11:00:17.634Z,97.50
2018-01-28T11:01:17.715Z,97.03
2018-01-28T11:02:17.696Z,96.94
2018-01-28T11:03:17.734Z,96.84
2018-01-28T11:04:17.765Z,96.94
2018-01-28T11:05:17.800Z,95.98
2018-01-28T11:06:17.832Z,96.26
2018-01-28T11:07:17.870Z,95.79
2018-01-28T11:08:17.965Z,96.17
2018-01-28T11:09:17.934Z,95.75
2018-01-28T11:10:17.968Z,95.98
2018-01-28T11:11:18.000Z,95.84
2018-01-28T11:12:18.035Z,96.08
2018-01-28T11:13:18.067Z,96.17
2018-01-28T11:14:18.112Z,96.17
2018-01-28T11:15:18.138Z,96.08
2018-01-28T11:16:18.195Z,96.12
2018-01-28T11:17:18.411Z,96.22
2018-01-28T11:18:18.454Z,95.89
2018-01-28T11:19:18.277Z,96.22
2018-01-28T11:20:18.511Z,96.22
2018-01-28T11:21:18.347Z,96.31
2018-01-28T11:22:18.390Z,96.41
2018-01-28T11:23:18.413Z,96.22
2018-01-28T11:24:18.456Z,96.22
2018-01-28T11:25:18.491Z,96.60
2018-01-28T11:26:18.526Z,97.46
2018-01-28T11:27:18.962Z,97.84
2018-01-28T11:28:18.590Z,97.13
2018-01-28T11:29:18.614Z,96.65
2018-01-28T11:30:18.646Z,96.84
2018-01-28T11:31:18.682Z,96.74
2018-01-28T11:32:18.717Z,97.22
2018-01-28T11:33:18.747Z,97.08
2018-01-28T11:34:18.787Z,96.03
2018-01-28T11:35:18.821Z,96.03
2018-01-28T11:36:19.063Z,96.22
2018-01-28T11:37:19.001Z,96.22
2018-01-28T11:38:18.934Z,96.12
2018-01-28T11:39:18.959Z,95.89
2018-01-28T11:40:19.320Z,95.79
2018-01-28T11:41:19.043Z,95.89
2018-01-28T11:42:19.060Z,96.17
2018-01-28T11:43:19.184Z,97.03
2018-01-28T11:44:19.131Z,96.65
2018-01-28T11:45:19.170Z,96.55
2018-01-28T11:46:19.253Z,97.41
2018-01-28T11:47:19.243Z,97.22
2018-01-28T11:48:19.270Z,97.22
2018-01-28T11:49:19.299Z,97.03
2018-01-28T11:50:19.364Z,97.88
2018-01-28T11:51:19.367Z,97.69
2018-01-28T11:52:19.400Z,97.41
2018-01-28T11:53:19.633Z,97.60
2018-01-28T11:54:19.671Z,97.79
2018-01-28T11:55:19.511Z,97.60
2018-01-28T11:56:19.594Z,97.60
2018-01-28T11:57:19.576Z,97.60
2018-01-28T11:58:19.604Z,96.94
2018-01-28T11:59:19.641Z,96.74
2018-01-28T12:00:19.673Z,96.84
2018-01-28T12:02:19.809Z,96.60
2018-01-28T12:03:19.774Z,96.22
2018-01-28T12:04:20.172Z,95.94
2018-01-28T12:05:19.842Z,96.12
2018-01-28T12:06:19.873Z,95.65
2018-01-28T12:07:19.976Z,95.65
2018-01-28T12:08:19.947Z,96.41
2018-01-28T12:09:19.980Z,96.41
2018-01-28T12:10:20.028Z,95.84
2018-01-28T12:11:20.059Z,95.65
2018-01-28T12:12:20.088Z,95.27
2018-01-28T12:13:20.120Z,95.46
2018-01-28T12:14:20.148Z,95.17
2018-01-28T12:15:20.183Z,94.98
2018-01-28T12:16:20.232Z,95.56
2018-01-28T12:18:20.301Z,94.32
2018-01-28T12:19:20.343Z,94.60
2018-01-28T12:20:20.774Z,94.98
2018-01-28T12:21:20.393Z,94.32
2018-01-28T12:22:20.489Z,95.17
2018-01-28T12:23:20.461Z,94.89
2018-01-28T12:24:20.554Z,94.89
2018-01-28T12:25:20.732Z,94.89
2018-01-28T12:26:20.765Z,94.70
2018-01-28T12:27:20.663Z,94.98
2018-01-28T12:29:20.665Z,95.08
2018-01-28T12:30:20.905Z,95.36
2018-01-28T12:31:20.739Z,95.46
2018-01-28T12:32:20.774Z,95.56
2018-01-28T12:33:20.804Z,96.51
2018-01-28T12:34:20.860Z,95.75
2018-01-28T12:35:20.928Z,95.46
2018-01-28T12:36:20.907Z,95.65
2018-01-28T12:37:21.011Z,95.36
2018-01-28T12:38:20.976Z,95.46
2018-01-28T12:39:21.011Z,94.89
2018-01-28T12:40:21.049Z,94.60
2018-01-28T12:41:21.133Z,94.79
2018-01-28T12:42:21.362Z,94.13
2018-01-28T12:43:21.213Z,94.13
2018-01-28T12:44:21.264Z,94.03
2018-01-28T12:45:21.217Z,94.60
2018-01-28T12:46:21.322Z,94.03
2018-01-28T12:47:21.285Z,94.27
2018-01-28T12:48:21.322Z,94.08
2018-01-28T12:49:21.451Z,93.89
2018-01-28T12:50:21.389Z,93.98
2018-01-28T12:51:21.429Z,93.74
2018-01-28T12:52:21.472Z,94.13
2018-01-28T12:53:21.495Z,94.60
2018-01-28T12:54:21.534Z,94.79
2018-01-28T12:55:21.572Z,94.79
2018-01-28T12:56:21.599Z,95.08
2018-01-28T12:57:21.637Z,94.89
2018-01-28T12:58:21.668Z,95.65
2018-01-28T12:59:21.720Z,95.84
2018-01-28T13:00:21.733Z,94.42